Adams, Minnesota
Current Conditions -  °F | °C
As of 6:55 PM on Saturday 22 Nov 2014 (Local Time) from KAUM Reporting Station
Drizzle Drizzle  
Wind Chill: 33°   Ceiling: 200
Heat Index: 37°   Visibility: 0.75mi
Dew Point: 37°   Wind: 6mph
Humidity: 100%   Direction: 150°SSE
Pressure: 29.62"   Gusts: NA
Location:  43.57°N, 92.72°W
Report Text: KAUM 230055Z AUTO 15005KT 3/4SM -DZ OVC002 03/03 A2962 RMK AO2
Loading
Personal Weather Stations






























Interactive Weather Map New forecast layout! Learn more

10-Day Weather Forecast

Advertisements
Track Severe Weather on mobile